sensor_id;sensor_type;location;lat;lon;timestamp;P1;durP1;ratioP1;P2;durP2;ratioP2
55641;SDS011;41509;53.108;6.100;2022-11-15T00:00:50;21.35;;;10.50;;
55641;SDS011;41509;53.108;6.100;2022-11-15T00:03:17;21.77;;;10.75;;
55641;SDS011;41509;53.108;6.100;2022-11-15T00:05:47;20.50;;;9.90;;
55641;SDS011;41509;53.108;6.100;2022-11-15T00:08:13;23.98;;;10.52;;
55641;SDS011;41509;53.108;6.100;2022-11-15T00:10:40;20.08;;;10.60;;
55641;SDS011;41509;53.108;6.100;2022-11-15T00:13:10;19.30;;;9.98;;
55641;SDS011;41509;53.108;6.100;2022-11-15T00:15:37;22.38;;;10.50;;
55641;SDS011;41509;53.108;6.100;2022-11-15T00:18:05;17.83;;;9.20;;
55641;SDS011;41509;53.108;6.100;2022-11-15T00:22:59;21.10;;;10.57;;
55641;SDS011;41509;53.108;6.100;2022-11-15T00:25:25;19.33;;;10.83;;
55641;SDS011;41509;53.108;6.100;2022-11-15T00:30:20;20.30;;;10.20;;
55641;SDS011;41509;53.108;6.100;2022-11-15T00:32:45;24.53;;;10.07;;
55641;SDS011;41509;53.108;6.100;2022-11-15T00:35:13;19.92;;;10.15;;
55641;SDS011;41509;53.108;6.100;2022-11-15T00:37:39;22.07;;;10.90;;
55641;SDS011;41509;53.108;6.100;2022-11-15T00:40:07;19.50;;;9.77;;
55641;SDS011;41509;53.108;6.100;2022-11-15T00:42:37;20.73;;;10.40;;
55641;SDS011;41509;53.108;6.100;2022-11-15T00:45:02;21.77;;;10.32;;
55641;SDS011;41509;53.108;6.100;2022-11-15T00:47:28;19.00;;;9.45;;
55641;SDS011;41509;53.108;6.100;2022-11-15T00:49:54;21.77;;;10.60;;
55641;SDS011;41509;53.108;6.100;2022-11-15T00:52:20;20.07;;;10.10;;
55641;SDS011;41509;53.108;6.100;2022-11-15T00:54:45;18.07;;;9.50;;
55641;SDS011;41509;53.108;6.100;2022-11-15T00:57:11;17.53;;;10.33;;
55641;SDS011;41509;53.108;6.100;2022-11-15T00:59:36;22.80;;;11.37;;
55641;SDS011;41509;53.108;6.100;2022-11-15T01:02:04;23.40;;;10.82;;
55641;SDS011;41509;53.108;6.100;2022-11-15T01:04:30;23.97;;;10.20;;
55641;SDS011;41509;53.108;6.100;2022-11-15T01:06:56;20.93;;;11.00;;
55641;SDS011;41509;53.108;6.100;2022-11-15T01:09:21;21.80;;;9.83;;
55641;SDS011;41509;53.108;6.100;2022-11-15T01:11:47;20.00;;;10.03;;
55641;SDS011;41509;53.108;6.100;2022-11-15T01:14:13;20.37;;;10.93;;
55641;SDS011;41509;53.108;6.100;2022-11-15T01:16:39;16.85;;;9.48;;
55641;SDS011;41509;53.108;6.100;2022-11-15T01:19:07;20.87;;;10.57;;
55641;SDS011;41509;53.108;6.100;2022-11-15T01:21:35;18.42;;;9.68;;
55641;SDS011;41509;53.108;6.100;2022-11-15T01:24:01;21.43;;;11.87;;
55641;SDS011;41509;53.108;6.100;2022-11-15T01:26:26;22.00;;;11.00;;
55641;SDS011;41509;53.108;6.100;2022-11-15T01:28:52;20.50;;;10.30;;
55641;SDS011;41509;53.108;6.100;2022-11-15T01:31:19;21.48;;;11.43;;
55641;SDS011;41509;53.108;6.100;2022-11-15T01:33:46;21.88;;;10.57;;
55641;SDS011;41509;53.108;6.100;2022-11-15T01:36:14;25.98;;;11.30;;
55641;SDS011;41509;53.108;6.100;2022-11-15T01:38:42;20.35;;;10.43;;
55641;SDS011;41509;53.108;6.100;2022-11-15T01:41:17;22.83;;;11.00;;
55641;SDS011;41509;53.108;6.100;2022-11-15T01:43:46;26.40;;;10.90;;
55641;SDS011;41509;53.108;6.100;2022-11-15T01:48:46;20.80;;;10.70;;
55641;SDS011;41509;53.108;6.100;2022-11-15T01:51:12;27.75;;;11.52;;
55641;SDS011;41509;53.108;6.100;2022-11-15T01:53:41;25.02;;;11.50;;
55641;SDS011;41509;53.108;6.100;2022-11-15T01:56:12;21.63;;;10.40;;
55641;SDS011;41509;53.108;6.100;2022-11-15T01:58:41;21.98;;;10.95;;
55641;SDS011;41509;53.108;6.100;2022-11-15T02:01:11;24.20;;;10.60;;
55641;SDS011;41509;53.108;6.100;2022-11-15T02:03:41;23.77;;;11.23;;
55641;SDS011;41509;53.108;6.100;2022-11-15T02:06:09;20.98;;;10.02;;
55641;SDS011;41509;53.108;6.100;2022-11-15T02:08:37;18.20;;;9.65;;
55641;SDS011;41509;53.108;6.100;2022-11-15T02:11:11;21.20;;;9.80;;
55641;SDS011;41509;53.108;6.100;2022-11-15T02:13:37;18.20;;;9.30;;
55641;SDS011;41509;53.108;6.100;2022-11-15T02:18:44;20.92;;;9.98;;
55641;SDS011;41509;53.108;6.100;2022-11-15T02:43:26;21.77;;;8.98;;
55641;SDS011;41509;53.108;6.100;2022-11-15T02:46:16;24.83;;;10.07;;
55641;SDS011;41509;53.108;6.100;2022-11-15T02:48:47;28.70;;;9.82;;
55641;SDS011;41509;53.108;6.100;2022-11-15T02:51:13;19.40;;;9.68;;
55641;SDS011;41509;53.108;6.100;2022-11-15T02:53:40;26.33;;;9.95;;
55641;SDS011;41509;53.108;6.100;2022-11-15T02:56:07;24.00;;;10.73;;
55641;SDS011;41509;53.108;6.100;2022-11-15T03:04:23;23.63;;;10.57;;
55641;SDS011;41509;53.108;6.100;2022-11-15T03:07:16;21.60;;;9.45;;
55641;SDS011;41509;53.108;6.100;2022-11-15T03:10:08;25.00;;;10.23;;
55641;SDS011;41509;53.108;6.100;2022-11-15T03:15:17;24.85;;;10.60;;
55641;SDS011;41509;53.108;6.100;2022-11-15T03:18:01;23.13;;;10.60;;
55641;SDS011;41509;53.108;6.100;2022-11-15T03:20:35;25.92;;;11.15;;
55641;SDS011;41509;53.108;6.100;2022-11-15T03:23:07;25.88;;;10.93;;
55641;SDS011;41509;53.108;6.100;2022-11-15T03:25:36;24.48;;;10.98;;
55641;SDS011;41509;53.108;6.100;2022-11-15T03:28:06;28.85;;;10.80;;
55641;SDS011;41509;53.108;6.100;2022-11-15T03:30:39;28.70;;;11.10;;
55641;SDS011;41509;53.108;6.100;2022-11-15T03:33:06;28.60;;;11.95;;
55641;SDS011;41509;53.108;6.100;2022-11-15T03:35:40;26.60;;;11.13;;
55641;SDS011;41509;53.108;6.100;2022-11-15T03:38:17;22.70;;;9.85;;
55641;SDS011;41509;53.108;6.100;2022-11-15T03:40:56;26.20;;;12.23;;
55641;SDS011;41509;53.108;6.100;2022-11-15T03:46:14;27.98;;;11.05;;
55641;SDS011;41509;53.108;6.100;2022-11-15T03:48:53;29.17;;;11.55;;
55641;SDS011;41509;53.108;6.100;2022-11-15T03:51:24;26.35;;;11.25;;
55641;SDS011;41509;53.108;6.100;2022-11-15T03:53:50;31.83;;;12.07;;
55641;SDS011;41509;53.108;6.100;2022-11-15T03:56:16;33.17;;;11.90;;
55641;SDS011;41509;53.108;6.100;2022-11-15T03:58:41;26.77;;;11.13;;
55641;SDS011;41509;53.108;6.100;2022-11-15T04:01:07;32.57;;;12.33;;
55641;SDS011;41509;53.108;6.100;2022-11-15T04:03:35;26.40;;;11.18;;
55641;SDS011;41509;53.108;6.100;2022-11-15T04:06:01;32.50;;;11.30;;
55641;SDS011;41509;53.108;6.100;2022-11-15T04:08:27;27.40;;;11.03;;
55641;SDS011;41509;53.108;6.100;2022-11-15T04:10:52;33.73;;;11.23;;
55641;SDS011;41509;53.108;6.100;2022-11-15T04:13:18;29.20;;;12.43;;
55641;SDS011;41509;53.108;6.100;2022-11-15T04:15:43;27.70;;;11.07;;
55641;SDS011;41509;53.108;6.100;2022-11-15T04:18:09;32.53;;;11.03;;
55641;SDS011;41509;53.108;6.100;2022-11-15T04:20:34;33.63;;;11.70;;
55641;SDS011;41509;53.108;6.100;2022-11-15T04:23:19;26.05;;;11.52;;
55641;SDS011;41509;53.108;6.100;2022-11-15T04:26:06;34.92;;;11.63;;
55641;SDS011;41509;53.108;6.100;2022-11-15T04:28:33;32.78;;;12.38;;
55641;SDS011;41509;53.108;6.100;2022-11-15T04:30:59;28.25;;;10.85;;
55641;SDS011;41509;53.108;6.100;2022-11-15T04:33:24;29.60;;;11.02;;
55641;SDS011;41509;53.108;6.100;2022-11-15T04:35:50;29.88;;;12.77;;
55641;SDS011;41509;53.108;6.100;2022-11-15T04:38:35;29.52;;;11.23;;
55641;SDS011;41509;53.108;6.100;2022-11-15T04:41:02;27.33;;;12.05;;
55641;SDS011;41509;53.108;6.100;2022-11-15T04:43:28;27.88;;;12.02;;
55641;SDS011;41509;53.108;6.100;2022-11-15T04:45:53;32.28;;;12.00;;
55641;SDS011;41509;53.108;6.100;2022-11-15T04:48:19;28.30;;;11.43;;
55641;SDS011;41509;53.108;6.100;2022-11-15T04:50:47;31.23;;;12.00;;
55641;SDS011;41509;53.108;6.100;2022-11-15T04:53:13;24.13;;;11.55;;
55641;SDS011;41509;53.108;6.100;2022-11-15T04:55:38;32.03;;;11.23;;
55641;SDS011;41509;53.108;6.100;2022-11-15T04:58:04;25.52;;;11.05;;
55641;SDS011;41509;53.108;6.100;2022-11-15T05:00:30;25.30;;;10.77;;
55641;SDS011;41509;53.108;6.100;2022-11-15T05:02:56;23.10;;;10.70;;
55641;SDS011;41509;53.108;6.100;2022-11-15T05:05:41;27.75;;;11.05;;
55641;SDS011;41509;53.108;6.100;2022-11-15T05:08:07;28.90;;;11.90;;
55641;SDS011;41509;53.108;6.100;2022-11-15T05:10:32;30.47;;;11.73;;
55641;SDS011;41509;53.108;6.100;2022-11-15T05:12:58;30.88;;;11.77;;
55641;SDS011;41509;53.108;6.100;2022-11-15T05:15:24;31.57;;;11.47;;
55641;SDS011;41509;53.108;6.100;2022-11-15T05:17:49;29.07;;;13.47;;
55641;SDS011;41509;53.108;6.100;2022-11-15T05:20:15;35.10;;;12.50;;
55641;SDS011;41509;53.108;6.100;2022-11-15T05:22:41;25.80;;;11.37;;
55641;SDS011;41509;53.108;6.100;2022-11-15T05:25:07;30.98;;;12.27;;
55641;SDS011;41509;53.108;6.100;2022-11-15T05:27:33;29.48;;;12.02;;
55641;SDS011;41509;53.108;6.100;2022-11-15T05:29:59;27.15;;;11.82;;
55641;SDS011;41509;53.108;6.100;2022-11-15T05:32:24;36.07;;;12.53;;
55641;SDS011;41509;53.108;6.100;2022-11-15T05:34:50;30.43;;;11.37;;
55641;SDS011;41509;53.108;6.100;2022-11-15T05:37:16;29.10;;;12.65;;
55641;SDS011;41509;53.108;6.100;2022-11-15T05:39:45;30.35;;;12.60;;
55641;SDS011;41509;53.108;6.100;2022-11-15T05:42:14;28.40;;;12.23;;
55641;SDS011;41509;53.108;6.100;2022-11-15T05:44:41;30.33;;;12.68;;
55641;SDS011;41509;53.108;6.100;2022-11-15T05:47:12;34.90;;;12.65;;
55641;SDS011;41509;53.108;6.100;2022-11-15T05:49:42;33.67;;;13.77;;
55641;SDS011;41509;53.108;6.100;2022-11-15T05:52:10;32.53;;;13.27;;
55641;SDS011;41509;53.108;6.100;2022-11-15T05:54:38;34.05;;;13.15;;
55641;SDS011;41509;53.108;6.100;2022-11-15T05:57:04;30.17;;;12.85;;
55641;SDS011;41509;53.108;6.100;2022-11-15T05:59:30;34.75;;;14.85;;
55641;SDS011;41509;53.108;6.100;2022-11-15T06:01:57;33.63;;;13.02;;
55641;SDS011;41509;53.108;6.100;2022-11-15T06:04:25;28.67;;;13.05;;
55641;SDS011;41509;53.108;6.100;2022-11-15T06:06:51;41.33;;;14.25;;
55641;SDS011;41509;53.108;6.100;2022-11-15T06:09:17;38.77;;;14.07;;
55641;SDS011;41509;53.108;6.100;2022-11-15T06:11:45;36.95;;;13.68;;
55641;SDS011;41509;53.108;6.100;2022-11-15T06:14:10;37.37;;;13.33;;
55641;SDS011;41509;53.108;6.100;2022-11-15T06:16:36;41.10;;;14.20;;
55641;SDS011;41509;53.108;6.100;2022-11-15T06:19:01;30.57;;;12.90;;
55641;SDS011;41509;53.108;6.100;2022-11-15T06:21:27;33.00;;;12.40;;
55641;SDS011;41509;53.108;6.100;2022-11-15T06:26:19;31.02;;;12.45;;
55641;SDS011;41509;53.108;6.100;2022-11-15T06:28:45;32.37;;;12.40;;
55641;SDS011;41509;53.108;6.100;2022-11-15T06:31:11;33.60;;;12.90;;
55641;SDS011;41509;53.108;6.100;2022-11-15T06:33:37;38.58;;;13.65;;
55641;SDS011;41509;53.108;6.100;2022-11-15T06:36:04;31.25;;;12.60;;
55641;SDS011;41509;53.108;6.100;2022-11-15T06:38:35;31.83;;;12.85;;
55641;SDS011;41509;53.108;6.100;2022-11-15T06:41:05;33.35;;;12.73;;
55641;SDS011;41509;53.108;6.100;2022-11-15T06:43:33;34.55;;;13.95;;
55641;SDS011;41509;53.108;6.100;2022-11-15T06:45:59;38.40;;;13.48;;
55641;SDS011;41509;53.108;6.100;2022-11-15T06:48:25;30.17;;;13.63;;
55641;SDS011;41509;53.108;6.100;2022-11-15T06:50:52;36.10;;;12.85;;
55641;SDS011;41509;53.108;6.100;2022-11-15T06:53:22;31.08;;;13.85;;
55641;SDS011;41509;53.108;6.100;2022-11-15T06:55:49;31.50;;;13.80;;
55641;SDS011;41509;53.108;6.100;2022-11-15T06:58:15;31.55;;;14.52;;
55641;SDS011;41509;53.108;6.100;2022-11-15T07:00:41;30.10;;;13.50;;
55641;SDS011;41509;53.108;6.100;2022-11-15T07:03:07;34.00;;;13.00;;
55641;SDS011;41509;53.108;6.100;2022-11-15T07:05:36;30.67;;;13.48;;
55641;SDS011;41509;53.108;6.100;2022-11-15T07:08:02;33.10;;;12.93;;
55641;SDS011;41509;53.108;6.100;2022-11-15T07:10:28;31.67;;;13.27;;
55641;SDS011;41509;53.108;6.100;2022-11-15T07:12:55;35.22;;;14.68;;
55641;SDS011;41509;53.108;6.100;2022-11-15T07:15:22;31.80;;;14.27;;
55641;SDS011;41509;53.108;6.100;2022-11-15T07:17:49;34.03;;;14.07;;
55641;SDS011;41509;53.108;6.100;2022-11-15T07:20:15;31.13;;;12.80;;
55641;SDS011;41509;53.108;6.100;2022-11-15T07:22:44;34.78;;;14.43;;
55641;SDS011;41509;53.108;6.100;2022-11-15T07:25:10;30.13;;;13.43;;
55641;SDS011;41509;53.108;6.100;2022-11-15T07:27:36;32.05;;;14.48;;
55641;SDS011;41509;53.108;6.100;2022-11-15T07:30:01;29.67;;;13.23;;
55641;SDS011;41509;53.108;6.100;2022-11-15T07:32:28;28.00;;;12.65;;
55641;SDS011;41509;53.108;6.100;2022-11-15T07:34:53;24.17;;;11.87;;
55641;SDS011;41509;53.108;6.100;2022-11-15T07:37:19;32.30;;;13.33;;
55641;SDS011;41509;53.108;6.100;2022-11-15T07:39:47;30.92;;;12.57;;
55641;SDS011;41509;53.108;6.100;2022-11-15T07:42:12;26.63;;;13.47;;
55641;SDS011;41509;53.108;6.100;2022-11-15T07:44:57;29.25;;;13.43;;
55641;SDS011;41509;53.108;6.100;2022-11-15T07:47:22;25.77;;;13.43;;
55641;SDS011;41509;53.108;6.100;2022-11-15T07:49:48;26.57;;;13.20;;
55641;SDS011;41509;53.108;6.100;2022-11-15T07:52:13;34.27;;;13.33;;
55641;SDS011;41509;53.108;6.100;2022-11-15T07:54:39;27.33;;;11.97;;
55641;SDS011;41509;53.108;6.100;2022-11-15T07:57:05;24.23;;;12.43;;
55641;SDS011;41509;53.108;6.100;2022-11-15T07:59:32;28.02;;;12.13;;
55641;SDS011;41509;53.108;6.100;2022-11-15T08:01:58;26.67;;;12.93;;
55641;SDS011;41509;53.108;6.100;2022-11-15T08:04:23;24.40;;;12.37;;
55641;SDS011;41509;53.108;6.100;2022-11-15T08:06:49;28.17;;;12.73;;
55641;SDS011;41509;53.108;6.100;2022-11-15T08:09:15;24.00;;;12.00;;
55641;SDS011;41509;53.108;6.100;2022-11-15T08:11:40;24.90;;;11.77;;
55641;SDS011;41509;53.108;6.100;2022-11-15T08:14:06;24.80;;;11.77;;
55641;SDS011;41509;53.108;6.100;2022-11-15T08:16:31;27.13;;;12.73;;
55641;SDS011;41509;53.108;6.100;2022-11-15T08:18:57;26.60;;;13.03;;
55641;SDS011;41509;53.108;6.100;2022-11-15T08:21:23;29.67;;;13.53;;
55641;SDS011;41509;53.108;6.100;2022-11-15T08:23:49;22.35;;;11.13;;
55641;SDS011;41509;53.108;6.100;2022-11-15T08:26:14;25.03;;;11.87;;
55641;SDS011;41509;53.108;6.100;2022-11-15T08:28:40;26.10;;;12.97;;
55641;SDS011;41509;53.108;6.100;2022-11-15T08:31:06;27.42;;;12.95;;
55641;SDS011;41509;53.108;6.100;2022-11-15T08:33:38;22.05;;;10.88;;
55641;SDS011;41509;53.108;6.100;2022-11-15T08:36:03;28.53;;;13.73;;
55641;SDS011;41509;53.108;6.100;2022-11-15T08:38:29;24.08;;;11.48;;
55641;SDS011;41509;53.108;6.100;2022-11-15T08:40:59;24.50;;;12.52;;
55641;SDS011;41509;53.108;6.100;2022-11-15T08:43:27;22.60;;;11.80;;
55641;SDS011;41509;53.108;6.100;2022-11-15T08:45:55;23.13;;;11.87;;
55641;SDS011;41509;53.108;6.100;2022-11-15T08:48:21;22.40;;;12.23;;
55641;SDS011;41509;53.108;6.100;2022-11-15T08:50:47;22.20;;;12.02;;
55641;SDS011;41509;53.108;6.100;2022-11-15T08:53:13;23.53;;;11.43;;
55641;SDS011;41509;53.108;6.100;2022-11-15T08:55:39;23.63;;;12.23;;
55641;SDS011;41509;53.108;6.100;2022-11-15T08:58:05;28.33;;;11.48;;
55641;SDS011;41509;53.108;6.100;2022-11-15T09:00:32;29.40;;;11.25;;
55641;SDS011;41509;53.108;6.100;2022-11-15T09:02:57;26.10;;;12.63;;
55641;SDS011;41509;53.108;6.100;2022-11-15T09:05:24;24.42;;;11.70;;
55641;SDS011;41509;53.108;6.100;2022-11-15T09:07:53;23.48;;;12.40;;
55641;SDS011;41509;53.108;6.100;2022-11-15T09:10:19;23.52;;;11.40;;
55641;SDS011;41509;53.108;6.100;2022-11-15T09:12:45;23.25;;;11.38;;
55641;SDS011;41509;53.108;6.100;2022-11-15T09:15:13;20.20;;;10.77;;
55641;SDS011;41509;53.108;6.100;2022-11-15T09:17:40;22.58;;;11.18;;
55641;SDS011;41509;53.108;6.100;2022-11-15T09:20:06;22.98;;;11.27;;
55641;SDS011;41509;53.108;6.100;2022-11-15T09:22:32;24.13;;;11.25;;
55641;SDS011;41509;53.108;6.100;2022-11-15T09:24:58;24.92;;;11.07;;
55641;SDS011;41509;53.108;6.100;2022-11-15T09:29:51;20.52;;;10.80;;
55641;SDS011;41509;53.108;6.100;2022-11-15T09:32:17;22.27;;;11.13;;
55641;SDS011;41509;53.108;6.100;2022-11-15T09:34:42;23.20;;;11.13;;
55641;SDS011;41509;53.108;6.100;2022-11-15T09:37:08;20.97;;;9.57;;
55641;SDS011;41509;53.108;6.100;2022-11-15T09:39:33;25.77;;;11.77;;
55641;SDS011;41509;53.108;6.100;2022-11-15T09:45:00;21.08;;;9.80;;
55641;SDS011;41509;53.108;6.100;2022-11-15T09:50:39;21.92;;;10.85;;
55641;SDS011;41509;53.108;6.100;2022-11-15T09:53:13;21.08;;;10.35;;
55641;SDS011;41509;53.108;6.100;2022-11-15T09:55:57;20.95;;;10.75;;
55641;SDS011;41509;53.108;6.100;2022-11-15T10:01:12;18.10;;;9.27;;
55641;SDS011;41509;53.108;6.100;2022-11-15T10:04:03;21.02;;;10.07;;
55641;SDS011;41509;53.108;6.100;2022-11-15T10:06:28;23.77;;;10.80;;
55641;SDS011;41509;53.108;6.100;2022-11-15T10:08:58;19.58;;;10.13;;
55641;SDS011;41509;53.108;6.100;2022-11-15T10:11:52;19.60;;;9.75;;
55641;SDS011;41509;53.108;6.100;2022-11-15T10:14:18;18.90;;;10.00;;
55641;SDS011;41509;53.108;6.100;2022-11-15T10:19:34;19.35;;;9.93;;
55641;SDS011;41509;53.108;6.100;2022-11-15T10:27:34;17.58;;;9.15;;
55641;SDS011;41509;53.108;6.100;2022-11-15T10:30:00;17.75;;;8.48;;
55641;SDS011;41509;53.108;6.100;2022-11-15T10:32:26;16.33;;;8.60;;
55641;SDS011;41509;53.108;6.100;2022-11-15T10:34:52;15.48;;;9.07;;
55641;SDS011;41509;53.108;6.100;2022-11-15T10:37:28;18.75;;;9.88;;
55641;SDS011;41509;53.108;6.100;2022-11-15T10:42:46;16.58;;;8.52;;
55641;SDS011;41509;53.108;6.100;2022-11-15T10:45:23;16.67;;;8.77;;
55641;SDS011;41509;53.108;6.100;2022-11-15T10:50:36;16.77;;;9.00;;
55641;SDS011;41509;53.108;6.100;2022-11-15T10:53:03;18.17;;;9.32;;
55641;SDS011;41509;53.108;6.100;2022-11-15T10:55:38;17.52;;;8.40;;
55641;SDS011;41509;53.108;6.100;2022-11-15T10:58:21;15.85;;;7.95;;
55641;SDS011;41509;53.108;6.100;2022-11-15T11:01:10;13.70;;;7.80;;
55641;SDS011;41509;53.108;6.100;2022-11-15T11:03:41;19.27;;;8.13;;
55641;SDS011;41509;53.108;6.100;2022-11-15T11:08:39;14.30;;;7.50;;
55641;SDS011;41509;53.108;6.100;2022-11-15T11:11:05;15.63;;;8.27;;
55641;SDS011;41509;53.108;6.100;2022-11-15T11:13:37;18.90;;;8.15;;
55641;SDS011;41509;53.108;6.100;2022-11-15T11:16:30;14.70;;;7.28;;
55641;SDS011;41509;53.108;6.100;2022-11-15T11:21:40;11.27;;;7.30;;
55641;SDS011;41509;53.108;6.100;2022-11-15T11:30:13;13.35;;;6.25;;
55641;SDS011;41509;53.108;6.100;2022-11-15T11:32:58;9.80;;;5.55;;
55641;SDS011;41509;53.108;6.100;2022-11-15T11:35:37;10.10;;;6.03;;
55641;SDS011;41509;53.108;6.100;2022-11-15T11:46:13;13.10;;;6.13;;
55641;SDS011;41509;53.108;6.100;2022-11-15T11:49:04;8.95;;;5.00;;
55641;SDS011;41509;53.108;6.100;2022-11-15T11:54:11;8.07;;;4.00;;
55641;SDS011;41509;53.108;6.100;2022-11-15T11:57:00;9.38;;;4.22;;
55641;SDS011;41509;53.108;6.100;2022-11-15T11:59:48;8.73;;;4.40;;
55641;SDS011;41509;53.108;6.100;2022-11-15T12:04:53;6.32;;;3.85;;
55641;SDS011;41509;53.108;6.100;2022-11-15T12:07:35;8.88;;;3.70;;
55641;SDS011;41509;53.108;6.100;2022-11-15T12:12:44;8.68;;;4.28;;
55641;SDS011;41509;53.108;6.100;2022-11-15T12:15:36;10.75;;;3.83;;
55641;SDS011;41509;53.108;6.100;2022-11-15T12:18:07;6.82;;;3.30;;
55641;SDS011;41509;53.108;6.100;2022-11-15T12:20:39;8.82;;;4.00;;
55641;SDS011;41509;53.108;6.100;2022-11-15T12:23:14;10.18;;;3.65;;
55641;SDS011;41509;53.108;6.100;2022-11-15T12:25:50;7.43;;;3.33;;
55641;SDS011;41509;53.108;6.100;2022-11-15T12:28:37;5.82;;;2.92;;
55641;SDS011;41509;53.108;6.100;2022-11-15T12:31:35;7.30;;;3.42;;
55641;SDS011;41509;53.108;6.100;2022-11-15T12:36:51;6.63;;;3.78;;
55641;SDS011;41509;53.108;6.100;2022-11-15T12:39:17;9.73;;;3.03;;
55641;SDS011;41509;53.108;6.100;2022-11-15T13:02:37;6.00;;;2.00;;
55641;SDS011;41509;53.108;6.100;2022-11-15T13:12:50;3.50;;;2.10;;
55641;SDS011;41509;53.108;6.100;2022-11-15T13:18:28;3.15;;;1.75;;
55641;SDS011;41509;53.108;6.100;2022-11-15T13:20:59;4.60;;;1.90;;
55641;SDS011;41509;53.108;6.100;2022-11-15T13:23:25;3.67;;;1.95;;
55641;SDS011;41509;53.108;6.100;2022-11-15T13:26:02;4.35;;;2.03;;
55641;SDS011;41509;53.108;6.100;2022-11-15T13:33:52;3.75;;;2.17;;
55641;SDS011;41509;53.108;6.100;2022-11-15T13:36:21;4.05;;;1.80;;
55641;SDS011;41509;53.108;6.100;2022-11-15T13:39:12;6.15;;;1.60;;
55641;SDS011;41509;53.108;6.100;2022-11-15T13:41:50;4.53;;;1.60;;
55641;SDS011;41509;53.108;6.100;2022-11-15T13:44:21;3.80;;;1.40;;
55641;SDS011;41509;53.108;6.100;2022-11-15T13:49:41;6.65;;;2.00;;
55641;SDS011;41509;53.108;6.100;2022-11-15T13:52:07;5.43;;;1.55;;
55641;SDS011;41509;53.108;6.100;2022-11-15T13:54:55;3.50;;;1.67;;
55641;SDS011;41509;53.108;6.100;2022-11-15T13:57:37;5.28;;;1.50;;
55641;SDS011;41509;53.108;6.100;2022-11-15T14:02:51;3.45;;;1.30;;
55641;SDS011;41509;53.108;6.100;2022-11-15T14:05:19;2.13;;;1.23;;
55641;SDS011;41509;53.108;6.100;2022-11-15T14:10:27;3.70;;;1.47;;
55641;SDS011;41509;53.108;6.100;2022-11-15T14:12:53;3.53;;;1.90;;
55641;SDS011;41509;53.108;6.100;2022-11-15T14:15:32;3.30;;;1.50;;
55641;SDS011;41509;53.108;6.100;2022-11-15T14:17:59;3.45;;;1.40;;
55641;SDS011;41509;53.108;6.100;2022-11-15T14:23:02;3.03;;;1.38;;
55641;SDS011;41509;53.108;6.100;2022-11-15T14:25:52;2.90;;;1.40;;
55641;SDS011;41509;53.108;6.100;2022-11-15T14:30:51;2.10;;;1.33;;
55641;SDS011;41509;53.108;6.100;2022-11-15T14:33:19;2.80;;;1.27;;
55641;SDS011;41509;53.108;6.100;2022-11-15T14:35:50;5.15;;;1.83;;
55641;SDS011;41509;53.108;6.100;2022-11-15T14:38:17;2.00;;;1.20;;
55641;SDS011;41509;53.108;6.100;2022-11-15T14:40:43;2.38;;;1.33;;
55641;SDS011;41509;53.108;6.100;2022-11-15T14:43:09;5.18;;;1.33;;
55641;SDS011;41509;53.108;6.100;2022-11-15T14:45:36;3.90;;;1.38;;
55641;SDS011;41509;53.108;6.100;2022-11-15T14:48:02;2.30;;;1.23;;
55641;SDS011;41509;53.108;6.100;2022-11-15T14:50:28;4.60;;;1.67;;
55641;SDS011;41509;53.108;6.100;2022-11-15T14:52:53;2.20;;;1.30;;
55641;SDS011;41509;53.108;6.100;2022-11-15T14:55:20;2.10;;;1.10;;
55641;SDS011;41509;53.108;6.100;2022-11-15T14:58:13;3.75;;;1.67;;
55641;SDS011;41509;53.108;6.100;2022-11-15T15:00:39;3.47;;;1.97;;
55641;SDS011;41509;53.108;6.100;2022-11-15T15:03:06;2.80;;;1.42;;
55641;SDS011;41509;53.108;6.100;2022-11-15T15:05:33;3.83;;;1.30;;
55641;SDS011;41509;53.108;6.100;2022-11-15T15:08:04;3.15;;;1.55;;
55641;SDS011;41509;53.108;6.100;2022-11-15T15:10:31;2.00;;;1.17;;
55641;SDS011;41509;53.108;6.100;2022-11-15T15:13:03;6.18;;;1.63;;
55641;SDS011;41509;53.108;6.100;2022-11-15T15:15:31;2.63;;;1.15;;
55641;SDS011;41509;53.108;6.100;2022-11-15T15:18:02;4.47;;;1.30;;
55641;SDS011;41509;53.108;6.100;2022-11-15T15:20:29;2.58;;;1.27;;
55641;SDS011;41509;53.108;6.100;2022-11-15T15:22:56;6.82;;;1.48;;
55641;SDS011;41509;53.108;6.100;2022-11-15T15:25:23;3.10;;;1.27;;
55641;SDS011;41509;53.108;6.100;2022-11-15T15:27:52;1.88;;;1.20;;
55641;SDS011;41509;53.108;6.100;2022-11-15T15:30:19;1.80;;;1.10;;
55641;SDS011;41509;53.108;6.100;2022-11-15T15:32:45;7.28;;;1.40;;
55641;SDS011;41509;53.108;6.100;2022-11-15T15:35:14;3.47;;;1.63;;
55641;SDS011;41509;53.108;6.100;2022-11-15T15:37:40;4.15;;;1.80;;
55641;SDS011;41509;53.108;6.100;2022-11-15T15:40:10;1.88;;;1.02;;
55641;SDS011;41509;53.108;6.100;2022-11-15T15:42:39;2.92;;;1.13;;
55641;SDS011;41509;53.108;6.100;2022-11-15T15:45:04;3.13;;;1.23;;
55641;SDS011;41509;53.108;6.100;2022-11-15T15:47:30;2.70;;;1.40;;
55641;SDS011;41509;53.108;6.100;2022-11-15T15:49:56;4.07;;;1.80;;
55641;SDS011;41509;53.108;6.100;2022-11-15T15:52:22;3.53;;;1.40;;
55641;SDS011;41509;53.108;6.100;2022-11-15T15:54:47;2.47;;;1.50;;
55641;SDS011;41509;53.108;6.100;2022-11-15T15:57:13;4.17;;;1.73;;
55641;SDS011;41509;53.108;6.100;2022-11-15T15:59:40;3.63;;;1.65;;
55641;SDS011;41509;53.108;6.100;2022-11-15T16:02:05;6.37;;;2.07;;
55641;SDS011;41509;53.108;6.100;2022-11-15T16:04:34;6.13;;;3.00;;
55641;SDS011;41509;53.108;6.100;2022-11-15T16:07:00;6.83;;;2.77;;
55641;SDS011;41509;53.108;6.100;2022-11-15T16:09:27;4.20;;;1.90;;
55641;SDS011;41509;53.108;6.100;2022-11-15T16:12:11;6.97;;;2.50;;
55641;SDS011;41509;53.108;6.100;2022-11-15T16:14:37;3.83;;;1.97;;
55641;SDS011;41509;53.108;6.100;2022-11-15T16:17:03;5.30;;;1.93;;
55641;SDS011;41509;53.108;6.100;2022-11-15T16:19:28;5.32;;;2.53;;
55641;SDS011;41509;53.108;6.100;2022-11-15T16:21:54;5.18;;;2.70;;
55641;SDS011;41509;53.108;6.100;2022-11-15T16:24:20;6.27;;;3.03;;
55641;SDS011;41509;53.108;6.100;2022-11-15T16:26:46;6.85;;;2.58;;
55641;SDS011;41509;53.108;6.100;2022-11-15T16:29:13;5.00;;;2.47;;
55641;SDS011;41509;53.108;6.100;2022-11-15T16:31:39;4.70;;;2.97;;
55641;SDS011;41509;53.108;6.100;2022-11-15T16:34:05;7.07;;;3.70;;
55641;SDS011;41509;53.108;6.100;2022-11-15T16:36:32;6.18;;;3.17;;
55641;SDS011;41509;53.108;6.100;2022-11-15T16:38:59;4.82;;;2.75;;
55641;SDS011;41509;53.108;6.100;2022-11-15T16:41:28;4.97;;;3.03;;
55641;SDS011;41509;53.108;6.100;2022-11-15T16:43:53;8.00;;;3.60;;
55641;SDS011;41509;53.108;6.100;2022-11-15T16:46:20;5.07;;;3.13;;
55641;SDS011;41509;53.108;6.100;2022-11-15T16:48:47;6.43;;;3.40;;
55641;SDS011;41509;53.108;6.100;2022-11-15T16:51:13;5.20;;;3.42;;
55641;SDS011;41509;53.108;6.100;2022-11-15T16:53:39;11.43;;;5.03;;
55641;SDS011;41509;53.108;6.100;2022-11-15T16:56:19;7.20;;;3.33;;
55641;SDS011;41509;53.108;6.100;2022-11-15T16:58:45;5.32;;;3.00;;
55641;SDS011;41509;53.108;6.100;2022-11-15T17:01:22;6.33;;;3.47;;
55641;SDS011;41509;53.108;6.100;2022-11-15T17:03:49;5.88;;;3.58;;
55641;SDS011;41509;53.108;6.100;2022-11-15T17:06:15;6.05;;;3.35;;
55641;SDS011;41509;53.108;6.100;2022-11-15T17:08:42;6.13;;;3.45;;
55641;SDS011;41509;53.108;6.100;2022-11-15T17:11:09;5.35;;;2.92;;
55641;SDS011;41509;53.108;6.100;2022-11-15T17:13:38;10.00;;;3.50;;